Horn Island Airport
YHID : now visible

Airfield :











YOU CAN JOIN US ON...

 
LOGIN :

Register | Disclaimer

   EN    FR    IT 

 









Legend :    VFR   Marginal VFR   IFR   Intensive IFR   Very Intensive IFR
Visi :
Ceiling :
>= 8 km
>= 3000ft
5 to 8 km
1000 to 3000 ft
1500m to 5 km
500 to 1000 ft
800 to 1500m
200 to 500 ft
< 800m
< 200 ft
Symbols :   Thunderstorms  Fog  Heavy snow  Heavy precipitations  Wind > 20 kt






- Airport Elevation : 43 ft
- IATA code : HID


YHID - Horn Island

CURRENT METAR :
  • 280500Z AUTO 11017KT 9999 // NCD 29/21 Q1013

EXPIRED METARs :
  • 280430Z AUTO 11016KT 9999 // NCD 29/21 Q1013 RF00.0/000.0
  • 280400Z AUTO 12017KT 9999 // NCD 30/22 Q1013
  • 280330Z AUTO 12018KT 9999 // NCD 29/21 Q1013 RF00.0/000.0
  • 280300Z AUTO 12017KT 9999 // NCD 29/21 Q1014
  • 280230Z AUTO 11017KT 9999 // NCD 29/22 Q1014 RF00.0/000.0

TAF TAF YHID
Valid from the 28 at 06:00 until the 29 at 06:00 UTC


280509Z 2806/2906 11017KT 9999 FEW025
FM280900 13011KT 9999 SCT018
FM290000 12017KT 9999 FEW025
YBBB FIR / Oceania



MET'MAP, your aeronautical weather chart ! - Copyright ORBIFLY December 2007 - Disclaimer

ORBIFLY MET'MAP TEAM :

Programming & Development : Alexandra Zaïnal
Concept & original design : Baudouin d'Aumeries
Assistance for programming : Marc-Olivier Méhu
Technical & hardware support : Manuel Goepfert

Contact : metmap@orbifly.com




SOURCES & CREDITS :

   NOAA       Earth
Advisory